AirNav   Everest Fuels
 
 963 users online  

13C Lakeview Airport/Griffith Field
Lakeview, Michigan, USA

GOING TO LAKEVIEW?


FAA INFORMATION EFFECTIVE 11 AUGUST 2022

Location

FAA Identifier: 13C
Lat/Long: 43-27-08.1000N 085-15-52.7000W
43-27.135000N 085-15.878333W
43.4522500,-85.2646389
(estimated)
Elevation: 968.9 ft. / 295.3 m (surveyed)
Variation: 05W (2000)
From city: 1 mile NE of LAKEVIEW, MI
Time zone: UTC -4 (UTC -5 during Standard Time)
Zip code: 48850

Airport Operations

Airport use: Open to the public
Activation date: 12/1944
Control tower: no
ARTCC: CHICAGO CENTER
FSS: LANSING FLIGHT SERVICE STATION
NOTAMs facility: LAN (NOTAM-D service available)
Attendance: 0800-DUSK
FOR SVC AFT HRS CALL AMGR.
Wind indicator: lighted
Segmented circle: yes
Lights: ACTVT REIL RWY 10 & 28; PAPI RWY 10 & 28; MIRL RWY 10/28 - CTAF.
Beacon: white-green (lighted land airport)
Operates sunset to sunrise.

Airport Communications

CTAF/UNICOM: 122.8
GREAT LAKES APPROACH: 124.6 [0530-0000]
GREAT LAKES DEPARTURE: 124.6 [0530-0000]
WX AWOS-3P at RQB (19 nm NW): 125.875 (231-796-0884)
  • APCH/DEP SVC PRVDD BY CHICAGO ARTCC (ZAU) ON FREQS 132.275/254.35 (MUSKEGON RCAG) WHEN GREAT LAKES APCH CTL CLSD.

Nearby radio navigation aids

VOR radial/distance  VOR name  Freq  Var
HICr112/21.0WHITE CLOUD VOR/DME117.6001W
MOPr251/25.1MOUNT PLEASANT VOR/DME110.6005W

Airport Services

Fuel available: 100LL
100LL:FUEL AVBL H24 SELF SVC.
Parking: tiedowns
Airframe service: MAJOR
Powerplant service: MAJOR
Bottled oxygen: NONE
Bulk oxygen: NONE

Runway Information

Runway 10/28

Dimensions: 3499 x 75 ft. / 1066 x 23 m
Surface: asphalt, in good condition
Weight bearing capacity: 
Single wheel: 12.0
Runway edge lights: medium intensity
RUNWAY 10  RUNWAY 28
Latitude: 43-27.128585N43-27.140355N
Longitude: 085-16.272793W085-15.482405W
Elevation: 963.0 ft.967.0 ft.
Traffic pattern: leftleft
Runway heading: 094 magnetic, 089 true274 magnetic, 269 true
Markings: nonprecision, in good conditionnonprecision, in good condition
Visual slope indicator: 2-light PAPI on left (3.00 degrees glide path)2-light PAPI on left (3.00 degrees glide path)
Runway end identifier lights: yesyes
Touchdown point: yes, no lightsyes, no lights
Obstructions: 66 ft. trees, 1590 ft. from runway, 15 ft. right of centerline, 21:1 slope to clear75 ft. trees, 1710 ft. from runway, 20:1 slope to clear
8 FT BRUSH TREE, 50 FT DIST, 240 FT L.

Airport Ownership and Management from official FAA records

Ownership: Publicly-owned
Owner: VILLAGE OF LAKEVIEW
208 S LINCOLN AVE, PO BOX 30
LAKEVIEW, MI 48850-0030
Phone 989-352-6322
CITY MGR OFC.
Manager: DARIN DOOD
208 S LINCOLN AVE, PO BOX 30
LAKEVIEW, MI 48850-0030
Phone 989-506-8874
CELL.

Airport Operational Statistics

Aircraft based on the field: 25
Single engine airplanes: 25
    
Aircraft operations: avg 28/day *
49% transient general aviation
49% local general aviation
2% military
* for 12-month period ending 31 December 2021

Additional Remarks

EXTSV AGRICULTURAL OPS.
DEER & BIRDS ON & INVOF ARPT.
FOR CD CTC GREAT LAKES APCH AT 269-459-3344, WHEN APCH CLSD CTC CHICAGO ARTCC AT 630-906-8921.

Instrument Procedures

NOTE: All procedures below are presented as PDF files. If you need a reader for these files, you should download the free Adobe Reader.

NOT FOR NAVIGATION. Please procure official charts for flight.
FAA instrument procedures published for use from 11 August 2022 at 0901Z to 08 September 2022 at 0900z.

 
IAPs - Instrument Approach Procedures
RNAV (GPS) RWY 10   download (175KB)
RNAV (GPS) RWY 28   download (183KB)
NOTE: Special Take-Off Minimums/Departure Procedures apply   download (352KB)

Other nearby airports with instrument procedures:

6D6 - Greenville Municipal Airport (19 nm S)
KRQB - Roben-Hood Airport (19 nm NW)
KMOP - Mount Pleasant Municipal Airport (25 nm NE)
KAMN - Gratiot Community Airport (26 nm E)
8D4 - Paul C Miller-Sparta Airport (27 nm SW)
 
Loc | Ops | Rwys | IFR | FBO | Links
Com | Nav | Svcs | Stats | Notes
Area around 13C (Lakeview Airport/Griffith Field)
 
Road maps at: MapQuest Bing Google
 
Aerial photo
WARNING: Photo may not be current or correct
Aerial photo of 13C (Lakeview Airport/Griffith Field)
Photo by Paul "Wally" Roode

Do you have a better or more recent aerial photo of Lakeview Airport/Griffith Field that you would like to share? If so, please send us your photo.

 
Sectional chart

 
Airport distance calculator
Flying to Lakeview Airport/Griffith Field? Find the distance to fly.

From to 13C

Sunrise and sunset
Times for 13-Aug-2022
 Local
(UTC-4)
 Zulu
(UTC)
Morning civil twilight06:1410:14
Sunrise06:4510:45
Sunset20:4700:47
Evening civil twilight21:1801:18

Current date and time
Zulu (UTC)  14-Aug-2022 01:42:50
Local (UTC-4)  13-Aug-2022 21:42:50
 
METAR
KRQB 
19nm NW 
140115Z AUTO 14004KT 7SM DZ BKN041 OVC049 14/13 A3009 RMK AO2 T01400133 P0001
KMOP 
25nm NE 
140115Z AUTO 15004KT 10SM OVC030 15/11 A3009 RMK AO2 T01500108
KAMN 
27nm E 
140115Z AUTO 15007KT 10SM SCT027 OVC034 15/13 A3010 RMK AO2 T01500129
KFFX 
32nm W 
140115Z AUTO 09009G14KT 10SM -DZ OVC006 13/13 A3005 RMK AO2 T01330125
KY70 
32nm S 
140115Z AUTO 10009KT 10SM SCT060 OVC080 13/13 A3008 RMK AO2 T01300130 P0001
KGRR 
36nm S 
140053Z 11009KT 3SM -RA BR FEW008 BKN045 OVC075 13/12 A3006 RMK AO2 SLP181 P0022 T01330122 $
TAF
KGRR 
36nm S 
132330Z 1400/1424 14006KT P6SM VCSH SCT012 OVC050 TEMPO 1400/1402 2SM -SHRA BR SCT008 OVC012 FM141000 12007KT 4SM BR VCSH OVC015 FM141200 10006KT 4SM -DZ BR OVC008 FM141400 07008KT P6SM OVC015 FM141600 05008KT P6SM BKN025
NOTAMs
Click for the latest NOTAMs
NOTAMs are issued by the DoD/FAA and will open in a separate window not controlled by AirNav.

 

 
 

FBO, Fuel Providers, and Aircraft Ground Support

  
 Business Name 
 
 Contact 
 
 Services / Description 
 
Fuel Prices
 
Comments
  
Petersen Oil Company Inc 989-506-8874
no information available

If you are affiliated with Petersen Oil Company Inc and would like to show here your services, contact info, web link, logo, and more, click here
100LL
SS $7.39 
 Updated 02-Aug-2022
 
   write
SS=Self service
Update Fuel Prices
 

Would you like to see your business listed on this page?

 If your business provides an interesting product or service to pilots, flight crews, aircraft, or users of the Lakeview Airport/Griffith Field, you should consider listing it here.  To start the listing process, click on the button below
 
Add a business
 

Other Pages about Lakeview Airport/Griffith Field

Page from the Michigan Airport Directory (PDF)
 
Update a link
 
Copyright © AirNav, LLC. All rights reserved. Privacy Policy  Contact